createdAt,value
2022-08-20T00:01:09.374Z,53.95
2022-08-20T00:03:44.792Z,56.17
2022-08-20T00:06:20.896Z,54.47
2022-08-20T00:08:48.090Z,48.53
2022-08-20T00:11:21.145Z,46.55
2022-08-20T00:13:54.192Z,51.88
2022-08-20T00:16:24.145Z,52.90
2022-08-20T00:18:51.297Z,50.70
2022-08-20T00:21:20.492Z,47.47
2022-08-20T00:23:50.881Z,54.50
2022-08-20T00:26:19.042Z,52.28
2022-08-20T00:28:46.608Z,50.33
2022-08-20T00:31:17.980Z,55.03
2022-08-20T00:33:45.651Z,54.28
2022-08-20T00:36:12.339Z,54.13
2022-08-20T00:38:42.736Z,49.50
2022-08-20T00:41:18.591Z,47.88
2022-08-20T00:43:50.938Z,47.22
2022-08-20T00:46:31.755Z,45.55
2022-08-20T00:49:01.619Z,43.70
2022-08-20T00:51:47.552Z,40.22
2022-08-20T00:54:29.874Z,44.42
2022-08-20T00:57:08.494Z,45.75
2022-08-20T00:59:40.196Z,47.83
2022-08-20T01:02:13.284Z,48.38
2022-08-20T01:04:40.572Z,51.88
2022-08-20T01:07:07.474Z,44.60
2022-08-20T01:09:57.432Z,46.17
2022-08-20T01:12:25.724Z,50.00
2022-08-20T01:14:52.947Z,53.17
2022-08-20T01:17:23.698Z,48.53
2022-08-20T01:20:03.773Z,48.38
2022-08-20T01:23:17.031Z,54.55
2022-08-20T01:26:09.094Z,56.95
2022-08-20T01:28:55.437Z,51.22
2022-08-20T01:31:28.849Z,51.53
2022-08-20T01:33:58.573Z,53.20
2022-08-20T01:36:45.556Z,54.70
2022-08-20T01:39:17.690Z,50.30
2022-08-20T01:42:21.137Z,57.85
2022-08-20T01:44:47.847Z,52.30
2022-08-20T01:47:31.178Z,55.10
2022-08-20T01:50:28.839Z,48.47
2022-08-20T01:53:10.334Z,53.35
2022-08-20T01:55:38.408Z,51.03
2022-08-20T01:58:05.575Z,50.42
2022-08-20T02:00:35.621Z,54.20
2022-08-20T02:03:03.546Z,55.05
2022-08-20T02:05:31.159Z,50.33
2022-08-20T02:07:58.080Z,49.30
2022-08-20T02:10:25.090Z,54.42
2022-08-20T02:12:52.362Z,54.35
2022-08-20T02:15:35.017Z,47.08
2022-08-20T02:18:10.801Z,47.65
2022-08-20T02:20:38.360Z,52.65
2022-08-20T02:23:07.295Z,49.58
2022-08-20T02:25:37.305Z,52.72
2022-08-20T02:28:13.370Z,53.80
2022-08-20T02:30:46.851Z,61.28
2022-08-20T02:33:17.295Z,49.00
2022-08-20T02:35:48.924Z,53.60
2022-08-20T02:38:16.255Z,54.92
2022-08-20T02:40:45.420Z,55.63
2022-08-20T02:43:13.037Z,54.22
2022-08-20T02:45:44.075Z,59.30
2022-08-20T02:48:23.546Z,54.72
2022-08-20T02:50:58.566Z,53.35
2022-08-20T02:53:30.820Z,55.83
2022-08-20T02:55:57.796Z,55.13
2022-08-20T02:58:24.664Z,55.08
2022-08-20T03:00:51.773Z,50.83
2022-08-20T03:03:22.429Z,55.60
2022-08-20T03:05:53.172Z,53.63
2022-08-20T03:08:21.914Z,58.45
2022-08-20T03:10:50.360Z,53.60
2022-08-20T03:13:18.008Z,61.55
2022-08-20T03:15:58.800Z,53.92
2022-08-20T03:18:34.584Z,56.70
2022-08-20T03:21:01.857Z,53.00
2022-08-20T03:23:28.870Z,53.28
2022-08-20T03:25:55.815Z,52.40
2022-08-20T03:28:22.764Z,57.42
2022-08-20T03:30:51.345Z,51.67
2022-08-20T03:33:20.208Z,57.25
2022-08-20T03:35:47.790Z,54.28
2022-08-20T03:38:16.492Z,54.33
2022-08-20T03:40:43.876Z,63.13
2022-08-20T03:43:12.327Z,58.90
2022-08-20T03:45:41.746Z,52.85
2022-08-20T03:48:12.330Z,54.08
2022-08-20T03:50:41.752Z,54.95
2022-08-20T03:53:14.734Z,55.08
2022-08-20T03:55:54.090Z,55.83
2022-08-20T03:58:36.316Z,60.85
2022-08-20T04:01:06.695Z,56.92
2022-08-20T04:03:33.887Z,59.03
2022-08-20T04:06:00.558Z,63.42
2022-08-20T04:08:31.979Z,62.13
2022-08-20T04:10:59.819Z,68.78
2022-08-20T04:13:29.442Z,70.85
2022-08-20T04:15:57.867Z,71.05
2022-08-20T04:18:26.257Z,74.00
2022-08-20T04:20:54.264Z,72.68
2022-08-20T04:23:22.143Z,77.07
2022-08-20T04:25:49.053Z,75.90
2022-08-20T04:28:25.394Z,75.65
2022-08-20T04:30:52.487Z,71.65
2022-08-20T04:33:34.051Z,75.95
2022-08-20T04:36:05.932Z,74.90
2022-08-20T04:38:48.233Z,65.18
2022-08-20T04:41:22.609Z,74.95
2022-08-20T04:43:53.889Z,67.97
2022-08-20T04:46:23.878Z,68.25
2022-08-20T04:48:50.831Z,60.15
2022-08-20T04:51:18.783Z,68.60
2022-08-20T04:53:52.308Z,67.50
2022-08-20T04:56:31.885Z,70.07
2022-08-20T04:59:01.530Z,64.43
2022-08-20T05:01:28.829Z,59.15
2022-08-20T05:03:57.395Z,56.22
2022-08-20T05:06:29.778Z,62.70
2022-08-20T05:08:58.714Z,60.65
2022-08-20T05:11:35.630Z,59.28
2022-08-20T05:14:08.997Z,65.90
2022-08-20T05:16:40.613Z,63.90
2022-08-20T05:19:10.791Z,67.78
2022-08-20T05:21:38.072Z,68.90
2022-08-20T05:24:06.826Z,69.70
2022-08-20T05:26:33.759Z,68.63
2022-08-20T05:29:00.383Z,74.10
2022-08-20T05:31:31.891Z,64.80
2022-08-20T05:34:09.552Z,69.55
2022-08-20T05:36:46.984Z,67.05
2022-08-20T05:39:18.976Z,71.90
2022-08-20T05:41:45.623Z,66.07
2022-08-20T05:44:14.118Z,71.53
2022-08-20T05:46:44.355Z,66.78
2022-08-20T05:49:15.520Z,73.90
2022-08-20T05:51:43.149Z,71.47
2022-08-20T05:54:09.906Z,71.45
2022-08-20T05:56:37.212Z,70.95
2022-08-20T05:59:07.394Z,67.45
2022-08-20T06:01:37.523Z,66.90
2022-08-20T06:04:23.908Z,59.22
2022-08-20T06:07:05.218Z,57.03
2022-08-20T06:09:32.877Z,61.28
2022-08-20T06:12:06.194Z,58.88
2022-08-20T06:14:33.939Z,60.85
2022-08-20T06:17:15.406Z,61.35
2022-08-20T06:19:44.771Z,66.35
2022-08-20T06:22:18.188Z,59.90
2022-08-20T06:24:50.303Z,60.15
2022-08-20T06:27:17.425Z,58.15
2022-08-20T06:29:44.434Z,53.60
2022-08-20T06:32:11.474Z,54.65
2022-08-20T06:34:38.214Z,59.72
2022-08-20T06:37:30.941Z,53.35
2022-08-20T06:40:05.827Z,55.40
2022-08-20T06:42:32.791Z,51.83
2022-08-20T06:45:00.441Z,56.50
2022-08-20T06:47:27.109Z,51.70
2022-08-20T06:49:53.782Z,53.50
2022-08-20T06:52:20.460Z,51.85
2022-08-20T06:54:58.530Z,50.67
2022-08-20T06:57:25.908Z,58.20
2022-08-20T06:59:55.244Z,52.63
2022-08-20T07:02:29.274Z,51.13
2022-08-20T07:04:57.243Z,50.63
2022-08-20T07:07:23.976Z,55.28
2022-08-20T07:09:58.436Z,55.90
2022-08-20T07:12:25.546Z,54.88
2022-08-20T07:14:52.137Z,50.58
2022-08-20T07:17:18.771Z,51.83
2022-08-20T07:19:45.438Z,53.47
2022-08-20T07:22:14.563Z,52.60
2022-08-20T07:24:43.248Z,51.78
2022-08-20T07:27:12.755Z,55.40
2022-08-20T07:29:57.810Z,59.58
2022-08-20T07:32:39.784Z,51.40
2022-08-20T07:35:16.432Z,55.30
2022-08-20T07:37:47.017Z,50.53
2022-08-20T07:40:26.165Z,54.70
2022-08-20T07:42:55.229Z,54.53
2022-08-20T07:45:23.113Z,49.95
2022-08-20T07:47:50.630Z,51.20
2022-08-20T07:50:19.899Z,55.13
2022-08-20T07:52:47.329Z,49.97
2022-08-20T07:55:16.420Z,46.88
2022-08-20T07:57:46.847Z,46.85
2022-08-20T08:00:15.121Z,44.00
2022-08-20T08:02:42.347Z,45.38
2022-08-20T08:05:09.827Z,43.25
2022-08-20T08:07:38.254Z,43.80
2022-08-20T08:10:09.622Z,47.05
2022-08-20T08:12:47.468Z,43.38
2022-08-20T08:15:18.757Z,41.03
2022-08-20T08:17:48.646Z,38.50
2022-08-20T08:20:16.333Z,42.92
2022-08-20T08:22:44.176Z,38.72
2022-08-20T08:25:13.216Z,33.75
2022-08-20T08:27:40.650Z,37.28
2022-08-20T08:30:09.329Z,34.10
2022-08-20T08:32:37.625Z,35.50
2022-08-20T08:35:08.882Z,28.38
2022-08-20T08:37:37.749Z,26.20
2022-08-20T08:40:05.817Z,27.42
2022-08-20T08:42:32.330Z,27.38
2022-08-20T08:45:00.460Z,27.80
2022-08-20T08:47:34.556Z,29.00
2022-08-20T08:50:02.619Z,25.23
2022-08-20T08:52:33.559Z,27.88
2022-08-20T08:55:05.664Z,23.92
2022-08-20T08:57:32.762Z,21.70
2022-08-20T09:00:13.424Z,19.23
2022-08-20T09:02:42.485Z,19.05
2022-08-20T09:05:17.093Z,20.15
2022-08-20T09:07:48.623Z,17.52
2022-08-20T09:10:16.160Z,17.65
2022-08-20T09:12:49.887Z,13.55
2022-08-20T09:15:18.765Z,14.43
2022-08-20T09:17:45.398Z,14.00
2022-08-20T09:20:12.124Z,11.98
2022-08-20T09:22:38.803Z,11.93
2022-08-20T09:25:06.414Z,13.07
2022-08-20T09:27:33.426Z,10.55
2022-08-20T09:30:00.289Z,9.85
2022-08-20T09:32:27.024Z,8.70
2022-08-20T09:34:56.306Z,8.60
2022-08-20T09:37:26.870Z,8.90
2022-08-20T09:39:53.806Z,11.85
2022-08-20T09:42:25.268Z,6.90
2022-08-20T09:44:52.251Z,11.20
2022-08-20T09:47:19.380Z,7.15
2022-08-20T09:49:46.636Z,7.35
2022-08-20T09:52:38.962Z,9.25
2022-08-20T09:55:42.282Z,5.28
2022-08-20T09:58:32.357Z,9.25
2022-08-20T10:01:16.984Z,5.10
2022-08-20T10:03:47.903Z,5.10
2022-08-20T10:06:16.693Z,6.20
2022-08-20T10:08:44.342Z,8.82
2022-08-20T10:11:11.355Z,9.98
2022-08-20T10:13:38.320Z,5.20
2022-08-20T10:16:05.647Z,10.02
2022-08-20T10:18:32.585Z,8.63
2022-08-20T10:20:59.250Z,8.48
2022-08-20T10:23:26.011Z,5.38
2022-08-20T10:25:52.619Z,6.97
2022-08-20T10:28:19.450Z,6.05
2022-08-20T10:30:46.938Z,5.75
2022-08-20T10:33:13.635Z,6.78
2022-08-20T10:35:40.336Z,7.07
2022-08-20T10:38:07.058Z,11.93
2022-08-20T10:40:33.677Z,9.68
2022-08-20T10:43:00.345Z,11.45
2022-08-20T10:45:26.966Z,7.40
2022-08-20T10:47:53.616Z,8.77
2022-08-20T10:50:20.634Z,7.43
2022-08-20T10:52:47.746Z,8.45
2022-08-20T10:55:14.649Z,5.93
2022-08-20T10:57:43.354Z,10.45
2022-08-20T11:00:14.298Z,5.40
2022-08-20T11:02:41.280Z,7.72
2022-08-20T11:05:09.056Z,6.55
2022-08-20T11:07:49.909Z,7.60
2022-08-20T11:10:24.079Z,5.28
2022-08-20T11:12:50.765Z,8.52
2022-08-20T11:15:17.431Z,7.78
2022-08-20T11:17:45.230Z,10.23
2022-08-20T11:20:15.622Z,8.32
2022-08-20T11:22:42.249Z,12.05
2022-08-20T11:25:09.874Z,7.68
2022-08-20T11:27:44.261Z,6.50
2022-08-20T12:39:34.817Z,15.57
2022-08-20T12:42:04.409Z,13.70
2022-08-20T12:44:32.497Z,15.77
2022-08-20T12:47:18.349Z,15.30
2022-08-20T12:49:49.206Z,15.38
2022-08-20T12:52:18.466Z,16.60
2022-08-20T12:54:45.750Z,18.80
2022-08-20T12:57:46.260Z,19.77
2022-08-20T13:00:17.507Z,14.90
2022-08-20T13:02:45.185Z,14.90
2022-08-20T13:05:13.185Z,16.50
2022-08-20T13:07:41.359Z,10.60
2022-08-20T13:10:26.432Z,13.15
2022-08-20T13:12:53.187Z,10.88
2022-08-20T13:15:21.239Z,8.50
2022-08-20T13:17:59.966Z,11.07
2022-08-20T13:20:31.731Z,8.07
2022-08-20T13:23:03.021Z,8.00
2022-08-20T13:25:29.823Z,8.57
2022-08-20T13:27:59.902Z,10.05
2022-08-20T13:30:27.236Z,7.95
2022-08-20T13:32:54.076Z,5.93
2022-08-20T13:35:21.113Z,11.07
2022-08-20T13:37:50.853Z,5.75
2022-08-20T13:40:18.667Z,8.75
2022-08-20T13:42:45.661Z,5.32
2022-08-20T13:45:12.452Z,7.55
2022-08-20T13:47:41.274Z,8.13
2022-08-20T13:50:19.660Z,5.95
2022-08-20T13:52:46.706Z,7.00
2022-08-20T13:55:19.443Z,8.25
2022-08-20T13:57:46.649Z,8.90
2022-08-20T14:00:20.371Z,7.70
2022-08-20T14:02:49.821Z,7.95
2022-08-20T14:05:17.286Z,9.43
2022-08-20T14:07:46.257Z,5.40
2022-08-20T14:10:20.773Z,5.60
2022-08-20T14:12:48.236Z,9.27
2022-08-20T14:15:15.134Z,10.02
2022-08-20T14:17:50.143Z,6.47
2022-08-20T14:20:20.991Z,5.60
2022-08-20T14:22:47.635Z,4.88
2022-08-20T14:25:17.634Z,7.18
2022-08-20T14:27:45.121Z,6.57
2022-08-20T14:30:17.462Z,6.60
2022-08-20T14:32:44.219Z,7.20
2022-08-20T14:35:11.932Z,6.85
2022-08-20T14:37:47.229Z,8.10
2022-08-20T14:40:17.647Z,9.30
2022-08-20T14:42:47.793Z,6.70
2022-08-20T14:45:22.491Z,8.20
2022-08-20T14:47:59.430Z,10.27
2022-08-20T14:50:33.714Z,6.72
2022-08-20T14:53:01.737Z,6.30
2022-08-20T14:55:35.822Z,9.27
2022-08-20T14:58:09.605Z,10.88
2022-08-20T15:00:36.381Z,9.18
2022-08-20T15:03:03.162Z,6.38
2022-08-20T15:05:30.112Z,6.10
2022-08-20T15:07:58.144Z,7.97
2022-08-20T15:10:32.692Z,8.38
2022-08-20T15:13:00.335Z,6.75
2022-08-20T15:15:27.789Z,9.02
2022-08-20T15:17:59.977Z,5.20
2022-08-20T15:20:31.058Z,9.32
2022-08-20T15:22:58.258Z,5.65
2022-08-20T15:25:36.824Z,5.75
2022-08-20T15:28:08.494Z,5.28
2022-08-20T15:30:36.688Z,7.97
2022-08-20T15:33:03.613Z,9.38
2022-08-20T15:35:30.637Z,11.27
2022-08-20T15:37:59.441Z,8.80
2022-08-20T15:40:29.299Z,8.23
2022-08-20T15:43:02.541Z,6.03
2022-08-20T15:45:29.989Z,8.55
2022-08-20T15:48:08.183Z,4.80
2022-08-20T15:51:14.147Z,6.43
2022-08-20T15:54:07.589Z,4.82
2022-08-20T15:56:50.204Z,7.85
2022-08-20T15:59:16.842Z,5.63
2022-08-20T16:02:43.156Z,6.10
2022-08-20T16:05:25.231Z,9.95
2022-08-20T16:08:34.585Z,5.75
2022-08-20T16:11:26.325Z,4.15
2022-08-20T16:14:17.956Z,7.07
2022-08-20T16:17:01.429Z,8.48
2022-08-20T16:19:48.025Z,5.60
2022-08-20T16:22:17.434Z,6.22
2022-08-20T16:24:44.091Z,5.57
2022-08-20T16:27:51.406Z,6.00
2022-08-20T16:31:03.265Z,3.08
2022-08-20T16:33:58.280Z,8.30
2022-08-20T16:36:35.073Z,2.78
2022-08-20T16:39:08.051Z,6.20
2022-08-20T16:41:41.938Z,4.20
2022-08-20T16:44:46.370Z,4.88
2022-08-20T16:47:33.107Z,7.18
2022-08-20T16:50:11.711Z,6.95
2022-08-20T16:52:44.169Z,4.55
2022-08-20T16:55:12.188Z,3.55
2022-08-20T16:57:39.010Z,6.28
2022-08-20T17:00:06.961Z,4.78
2022-08-20T17:02:33.681Z,6.53
2022-08-20T17:05:05.562Z,4.00
2022-08-20T17:08:03.535Z,3.72
2022-08-20T17:10:52.268Z,4.43
2022-08-20T17:13:31.473Z,8.85
2022-08-20T17:16:08.204Z,12.00
2022-08-20T17:18:51.199Z,5.80
2022-08-20T17:21:31.779Z,4.88
2022-08-20T17:24:03.622Z,5.18
2022-08-20T17:26:56.948Z,3.40
2022-08-20T17:29:32.064Z,3.50
2022-08-20T17:32:09.135Z,4.03
2022-08-20T17:35:04.482Z,3.83
2022-08-20T17:37:50.233Z,4.40
2022-08-20T17:40:27.957Z,4.00
2022-08-20T17:42:58.511Z,7.40
2022-08-20T17:45:36.644Z,3.70
2022-08-20T17:48:08.353Z,4.05
2022-08-20T17:50:41.079Z,3.88
2022-08-20T17:53:48.102Z,5.78
2022-08-20T17:56:29.442Z,3.92
2022-08-20T17:59:59.532Z,6.05
2022-08-20T18:02:15.397Z,4.07
2022-08-20T18:04:42.589Z,4.72
2022-08-20T18:07:31.274Z,3.67
2022-08-20T18:10:07.479Z,7.28
2022-08-20T18:12:46.080Z,6.85
2022-08-20T18:15:24.234Z,7.00
2022-08-20T18:18:09.431Z,4.10
2022-08-20T18:21:23.066Z,6.50
2022-08-20T18:24:05.779Z,3.40
2022-08-20T18:26:37.327Z,6.38
2022-08-20T18:29:19.819Z,3.70
2022-08-20T18:31:53.041Z,5.75
2022-08-20T18:34:41.153Z,3.03
2022-08-20T18:37:26.663Z,12.32
2022-08-20T18:40:16.994Z,6.30
2022-08-20T18:42:45.757Z,3.42
2022-08-20T18:45:12.898Z,2.80
2022-08-20T18:47:46.590Z,4.95
2022-08-20T18:50:30.527Z,3.72
2022-08-20T18:53:34.279Z,5.18
2022-08-20T18:56:15.307Z,4.57
2022-08-20T18:59:05.776Z,3.80
2022-08-20T19:01:37.435Z,6.75
2022-08-20T19:04:28.422Z,5.97
2022-08-20T19:07:04.001Z,10.10
2022-08-20T19:10:12.786Z,4.70
2022-08-20T19:13:59.477Z,6.55
2022-08-20T19:16:42.136Z,6.45
2022-08-20T19:19:19.295Z,4.55
2022-08-20T19:21:46.213Z,5.45
2022-08-20T19:24:18.507Z,5.20
2022-08-20T19:27:01.292Z,4.28
2022-08-20T19:29:35.294Z,7.68
2022-08-20T19:32:08.340Z,4.13
2022-08-20T19:34:36.831Z,7.30
2022-08-20T19:37:34.747Z,9.32
2022-08-20T19:40:18.458Z,7.05
2022-08-20T19:42:46.011Z,9.75
2022-08-20T19:45:27.297Z,4.65
2022-08-20T19:48:27.815Z,5.20
2022-08-20T19:51:02.657Z,6.95
2022-08-20T19:53:36.461Z,10.40
2022-08-20T19:56:10.597Z,6.28
2022-08-20T19:58:37.480Z,7.80
2022-08-20T20:01:20.410Z,6.10
2022-08-20T20:04:07.014Z,8.40
2022-08-20T20:06:43.349Z,7.20
2022-08-20T20:09:29.935Z,5.05
2022-08-20T20:12:02.544Z,4.90
2022-08-20T20:14:36.011Z,5.85
2022-08-20T20:17:08.702Z,4.82
2022-08-20T20:19:59.135Z,5.43
2022-08-20T20:22:33.715Z,6.40
2022-08-20T20:25:42.915Z,6.28
2022-08-20T20:28:21.294Z,5.70
2022-08-20T20:30:48.834Z,8.32
2022-08-20T20:33:29.861Z,8.82
2022-08-20T20:36:15.962Z,9.73
2022-08-20T20:39:04.537Z,11.90
2022-08-20T20:41:32.583Z,8.40
2022-08-20T20:44:26.265Z,8.18
2022-08-20T20:46:59.067Z,6.85
2022-08-20T20:49:34.804Z,7.28
2022-08-20T20:52:17.504Z,8.93
2022-08-20T20:54:46.814Z,6.20
2022-08-20T20:57:19.633Z,6.45
2022-08-20T21:00:14.346Z,8.10
2022-08-20T21:02:41.874Z,12.63
2022-08-20T21:05:10.710Z,9.02
2022-08-20T21:07:51.201Z,8.68
2022-08-20T21:10:22.716Z,12.93
2022-08-20T21:12:52.868Z,8.30
2022-08-20T21:15:22.091Z,8.57
2022-08-20T21:17:48.948Z,9.00
2022-08-20T21:20:15.993Z,7.68
2022-08-20T21:22:42.719Z,9.05
2022-08-20T21:25:09.647Z,9.02
2022-08-20T21:27:36.941Z,13.55
2022-08-20T21:30:05.806Z,8.25
2022-08-20T21:32:32.402Z,7.85
2022-08-20T21:34:59.066Z,8.13
2022-08-20T21:37:25.680Z,8.02
2022-08-20T21:39:52.510Z,8.75
2022-08-20T21:42:29.256Z,11.15
2022-08-20T21:44:58.309Z,8.80
2022-08-20T21:47:25.465Z,10.48
2022-08-20T21:49:52.503Z,8.93
2022-08-20T21:52:19.275Z,10.18
2022-08-20T21:54:45.911Z,8.55
2022-08-20T21:57:22.707Z,10.65
2022-08-20T21:59:49.716Z,9.35
2022-08-20T22:02:18.308Z,11.40
2022-08-20T22:04:45.514Z,10.52
2022-08-20T22:07:12.573Z,11.43
2022-08-20T22:09:39.435Z,10.88
2022-08-20T22:12:19.039Z,9.05
2022-08-20T22:14:46.618Z,14.60
2022-08-20T22:17:14.794Z,9.55
2022-08-20T22:19:41.551Z,9.93
2022-08-20T22:22:14.468Z,10.45
2022-08-20T22:24:42.361Z,9.35
2022-08-20T22:27:09.070Z,10.65
2022-08-20T22:29:35.693Z,8.45
2022-08-20T22:32:02.778Z,9.13
2022-08-20T22:34:33.112Z,9.70
2022-08-20T22:37:01.532Z,9.30
2022-08-20T22:39:28.435Z,8.70
2022-08-20T22:41:55.329Z,9.13
2022-08-20T22:44:22.026Z,13.05
2022-08-20T22:46:53.878Z,11.50
2022-08-20T22:49:26.775Z,7.38
2022-08-20T22:51:53.536Z,7.28
2022-08-20T22:54:23.269Z,8.05
2022-08-20T22:56:51.897Z,6.75
2022-08-20T22:59:20.602Z,7.45
2022-08-20T23:01:47.818Z,7.93
2022-08-20T23:04:26.703Z,11.75
2022-08-20T23:06:56.358Z,7.05
2022-08-20T23:09:24.417Z,5.75
2022-08-20T23:11:52.106Z,10.05
2022-08-20T23:14:19.637Z,7.03
2022-08-20T23:16:51.757Z,11.45
2022-08-20T23:19:22.599Z,7.60
